createdAt,value
2022-12-28T00:02:08.326Z,99006.63
2022-12-28T00:05:12.402Z,98996.41
2022-12-28T00:08:16.490Z,98995.94
2022-12-28T00:11:26.485Z,98993.47
2022-12-28T00:14:34.608Z,98995.88
2022-12-28T00:17:40.072Z,98987.84
2022-12-28T00:20:44.146Z,98974.91
2022-12-28T00:23:51.193Z,98971.59
2022-12-28T00:27:00.009Z,98971.69
2022-12-28T00:30:05.021Z,98972.81
2022-12-28T00:33:10.947Z,98970.13
2022-12-28T00:36:16.798Z,98968.84
2022-12-28T00:39:21.198Z,98976.78
2022-12-28T00:42:27.491Z,98960.41
2022-12-28T00:45:32.293Z,98965.72
2022-12-28T00:48:37.638Z,98961.56
2022-12-28T00:51:41.983Z,98954.44
2022-12-28T00:54:46.062Z,98945.34
2022-12-28T00:57:50.235Z,98950.25
2022-12-28T01:00:56.848Z,98946.53
2022-12-28T01:04:03.046Z,98943.47
2022-12-28T01:07:07.204Z,98934.44
2022-12-28T01:10:12.194Z,98921.59
2022-12-28T01:13:16.523Z,98923.81
2022-12-28T01:16:23.566Z,98920.13
2022-12-28T01:19:29.637Z,98904.81
2022-12-28T01:22:35.099Z,98913.25
2022-12-28T01:25:40.057Z,98917.00
2022-12-28T01:28:44.930Z,98919.44
2022-12-28T01:31:50.432Z,98905.47
2022-12-28T01:34:57.459Z,98900.63
2022-12-28T01:38:02.780Z,98896.31
2022-12-28T01:41:09.835Z,98897.66
2022-12-28T01:44:45.403Z,98892.94
2022-12-28T01:47:54.298Z,98891.47
2022-12-28T01:51:00.265Z,98889.19
2022-12-28T01:54:06.432Z,98870.69
2022-12-28T01:57:11.678Z,98881.50
2022-12-28T02:00:19.159Z,98867.75
2022-12-28T02:03:28.115Z,98862.34
2022-12-28T02:06:35.240Z,98857.03
2022-12-28T02:09:43.407Z,98849.63
2022-12-28T02:12:48.485Z,98844.44
2022-12-28T02:15:53.735Z,98846.88
2022-12-28T02:18:58.451Z,98841.91
2022-12-28T02:22:25.907Z,98837.75
2022-12-28T02:26:00.971Z,98831.19
2022-12-28T02:29:35.550Z,98831.91
2022-12-28T02:33:02.080Z,98825.69
2022-12-28T02:36:17.951Z,98823.59
2022-12-28T02:39:26.457Z,98821.31
2022-12-28T02:42:32.379Z,98823.19
2022-12-28T02:45:57.197Z,98818.47
2022-12-28T02:49:29.762Z,98810.13
2022-12-28T02:52:51.324Z,98808.19
2022-12-28T02:56:10.639Z,98798.56
2022-12-28T02:59:42.131Z,98776.25
2022-12-28T03:02:59.108Z,98773.03
2022-12-28T03:06:31.710Z,98759.34
2022-12-28T03:09:42.157Z,98766.19
2022-12-28T03:12:52.124Z,98762.72
2022-12-28T03:15:59.961Z,98763.28
2022-12-28T03:19:27.499Z,98749.06
2022-12-28T03:22:50.192Z,98760.28
2022-12-28T03:26:13.113Z,98763.88
2022-12-28T03:29:38.572Z,98766.53
2022-12-28T03:32:45.615Z,98771.63
2022-12-28T03:35:58.959Z,98764.34
2022-12-28T03:39:12.004Z,98762.38
2022-12-28T03:42:36.057Z,98759.69
2022-12-28T03:45:52.445Z,98754.13
2022-12-28T03:49:01.664Z,98746.38
2022-12-28T03:52:08.546Z,98739.66
2022-12-28T03:55:15.339Z,98727.16
2022-12-28T03:58:22.007Z,98727.72
2022-12-28T04:01:26.719Z,98731.44
2022-12-28T04:04:31.379Z,98733.63
2022-12-28T04:07:37.357Z,98727.03
2022-12-28T04:10:41.707Z,98726.91
2022-12-28T04:13:46.585Z,98718.69
2022-12-28T04:16:53.183Z,98725.66
2022-12-28T04:19:58.531Z,98726.09
2022-12-28T04:23:04.384Z,98720.56
2022-12-28T04:26:12.348Z,98721.72
2022-12-28T04:29:16.783Z,98707.25
2022-12-28T04:32:21.612Z,98689.63
2022-12-28T04:35:26.146Z,98689.03
2022-12-28T04:38:32.069Z,98685.81
2022-12-28T04:41:36.688Z,98691.47
2022-12-28T04:44:41.063Z,98690.31
2022-12-28T04:47:45.342Z,98693.31
2022-12-28T04:50:49.491Z,98685.19
2022-12-28T04:53:56.044Z,98696.59
2022-12-28T04:57:00.757Z,98692.53
2022-12-28T05:00:05.413Z,98689.97
2022-12-28T05:03:10.352Z,98686.97
2022-12-28T05:06:18.046Z,98677.94
2022-12-28T05:09:24.247Z,98676.53
2022-12-28T05:12:28.606Z,98678.50
2022-12-28T05:15:33.302Z,98675.03
2022-12-28T05:18:38.559Z,98670.28
2022-12-28T05:21:43.026Z,98664.81
2022-12-28T05:24:51.424Z,98669.00
2022-12-28T05:27:57.050Z,98670.16
2022-12-28T05:31:03.143Z,98681.34
2022-12-28T05:34:07.944Z,98675.25
2022-12-28T05:37:18.514Z,98674.19
2022-12-28T05:40:28.096Z,98675.56
2022-12-28T05:43:34.729Z,98668.03
2022-12-28T05:46:39.098Z,98664.69
2022-12-28T05:49:43.119Z,98668.84
2022-12-28T05:52:50.370Z,98664.44
2022-12-28T05:55:54.907Z,98674.53
2022-12-28T05:58:59.264Z,98664.09
2022-12-28T06:02:02.379Z,98669.19
2022-12-28T06:05:05.864Z,98663.41
2022-12-28T06:08:08.458Z,98652.63
2022-12-28T06:11:14.685Z,98654.97
2022-12-28T06:14:17.373Z,98657.28
2022-12-28T06:17:20.031Z,98644.22
2022-12-28T06:20:22.727Z,98651.16
2022-12-28T06:23:26.603Z,98649.78
2022-12-28T06:26:32.404Z,98643.97
2022-12-28T06:29:35.040Z,98642.81
2022-12-28T06:32:38.076Z,98654.06
2022-12-28T06:35:41.912Z,98635.97
2022-12-28T06:38:44.634Z,98636.88
2022-12-28T06:41:48.558Z,98642.22
2022-12-28T06:44:51.221Z,98643.28
2022-12-28T06:47:53.936Z,98640.38
2022-12-28T06:50:57.639Z,98636.88
2022-12-28T06:54:00.310Z,98640.69
2022-12-28T06:57:04.420Z,98633.75
2022-12-28T07:00:08.781Z,98635.28
2022-12-28T07:03:11.453Z,98631.22
2022-12-28T07:06:15.629Z,98620.06
2022-12-28T07:09:18.242Z,98628.06
2022-12-28T07:12:22.252Z,98619.38
2022-12-28T07:15:25.326Z,98622.88
2022-12-28T07:18:29.392Z,98611.97
2022-12-28T07:21:35.051Z,98613.59
2022-12-28T07:24:37.886Z,98602.19
2022-12-28T07:27:41.913Z,98603.84
2022-12-28T07:30:44.625Z,98596.63
2022-12-28T07:33:48.261Z,98596.97
2022-12-28T07:36:50.932Z,98598.59
2022-12-28T07:39:53.573Z,98598.59
2022-12-28T07:42:57.902Z,98598.34
2022-12-28T07:46:02.331Z,98594.41
2022-12-28T07:49:05.155Z,98604.56
2022-12-28T07:52:08.531Z,98602.00
2022-12-28T07:55:11.169Z,98602.91
2022-12-28T07:58:15.512Z,98599.75
2022-12-28T08:01:20.280Z,98595.81
2022-12-28T08:04:23.014Z,98596.38
2022-12-28T08:07:26.269Z,98597.59
2022-12-28T08:10:28.881Z,98596.16
2022-12-28T08:13:34.387Z,98585.56
2022-12-28T08:16:38.934Z,98575.78
2022-12-28T08:19:41.609Z,98573.38
2022-12-28T08:22:44.274Z,98582.50
2022-12-28T08:25:46.950Z,98564.72
2022-12-28T08:28:53.020Z,98566.16
2022-12-28T08:31:55.637Z,98566.47
2022-12-28T08:35:00.167Z,98561.97
2022-12-28T08:38:02.816Z,98549.50
2022-12-28T08:41:07.732Z,98555.50
2022-12-28T08:44:11.878Z,98551.09
2022-12-28T08:47:14.632Z,98553.59
2022-12-28T08:50:20.066Z,98558.84
2022-12-28T08:53:24.267Z,98553.59
2022-12-28T08:56:29.497Z,98550.09
2022-12-28T08:59:33.539Z,98546.97
2022-12-28T09:02:36.776Z,98548.06
2022-12-28T09:05:40.081Z,98550.94
2022-12-28T09:08:51.385Z,98551.00
2022-12-28T09:12:07.316Z,98557.22
2022-12-28T09:15:12.040Z,98559.72
2022-12-28T09:18:14.674Z,98549.03
2022-12-28T09:21:20.421Z,98558.50
2022-12-28T09:24:24.342Z,98549.41
2022-12-28T09:27:27.067Z,98540.16
2022-12-28T09:30:31.095Z,98553.13
2022-12-28T09:34:33.711Z,98547.69
2022-12-28T09:37:15.292Z,98542.84
2022-12-28T09:40:18.213Z,98544.84
2022-12-28T09:43:21.872Z,98541.41
2022-12-28T09:46:26.467Z,98532.53
2022-12-28T09:49:35.715Z,98532.91
2022-12-28T09:52:49.868Z,98529.44
2022-12-28T09:55:59.184Z,98525.38
2022-12-28T09:59:03.024Z,98526.69
2022-12-28T10:02:18.932Z,98527.75
2022-12-28T10:05:23.346Z,98527.16
2022-12-28T10:08:28.827Z,98522.28
2022-12-28T10:11:34.229Z,98515.50
2022-12-28T10:14:37.042Z,98509.06
2022-12-28T10:17:42.040Z,98515.50
2022-12-28T10:20:45.433Z,98503.41
2022-12-28T10:24:21.253Z,98503.94
2022-12-28T10:27:19.626Z,98493.50
2022-12-28T10:30:26.762Z,98498.88
2022-12-28T10:33:31.265Z,98492.22
2022-12-28T10:36:35.402Z,98478.88
2022-12-28T10:39:38.678Z,98481.88
2022-12-28T10:42:43.980Z,98473.84
2022-12-28T10:45:50.756Z,98470.66
2022-12-28T10:48:56.733Z,98466.41
2022-12-28T10:52:05.459Z,98465.91
2022-12-28T10:55:28.645Z,98476.63
2022-12-28T10:58:33.731Z,98460.34
2022-12-28T11:01:36.986Z,98446.44
2022-12-28T11:04:53.975Z,98445.97
2022-12-28T11:08:06.540Z,98445.75
2022-12-28T11:11:18.854Z,98429.66
2022-12-28T11:14:32.831Z,98428.34
2022-12-28T11:17:37.663Z,98424.88
2022-12-28T11:20:45.441Z,98425.38
2022-12-28T11:23:49.450Z,98416.25
2022-12-28T11:26:52.219Z,98407.38
2022-12-28T11:29:56.731Z,98409.25
2022-12-28T11:33:01.839Z,98397.47
2022-12-28T11:36:10.198Z,98393.41
2022-12-28T11:39:32.043Z,98389.09
2022-12-28T11:42:55.520Z,98378.38
2022-12-28T11:45:59.395Z,98388.81
2022-12-28T11:49:03.427Z,98385.88
2022-12-28T11:52:47.332Z,98378.66
2022-12-28T11:56:04.116Z,98371.69
2022-12-28T11:59:22.748Z,98371.19
2022-12-28T12:02:41.383Z,98365.34
2022-12-28T12:05:52.515Z,98353.78
2022-12-28T12:08:56.576Z,98350.00
2022-12-28T12:12:00.511Z,98356.22
2022-12-28T12:15:10.910Z,98343.69
2022-12-28T12:18:21.233Z,98338.38
2022-12-28T12:21:37.433Z,98339.69
2022-12-28T12:24:47.005Z,98339.28
2022-12-28T12:27:54.807Z,98333.13
2022-12-28T12:30:58.574Z,98338.25
2022-12-28T12:34:12.138Z,98324.56
2022-12-28T12:37:42.686Z,98308.19
2022-12-28T12:41:18.986Z,98299.38
2022-12-28T12:44:34.288Z,98300.16
2022-12-28T12:47:57.124Z,98301.25
2022-12-28T12:51:15.914Z,98294.28
2022-12-28T12:54:33.184Z,98290.00
2022-12-28T12:57:50.112Z,98294.03
2022-12-28T13:01:19.028Z,98288.13
2022-12-28T13:04:25.496Z,98285.69
2022-12-28T13:07:29.203Z,98287.31
2022-12-28T13:10:35.763Z,98275.25
2022-12-28T13:13:42.249Z,98272.59
2022-12-28T13:16:48.881Z,98272.31
2022-12-28T13:19:51.512Z,98269.88
2022-12-28T13:22:54.810Z,98269.63
2022-12-28T13:26:00.044Z,98266.13
2022-12-28T13:29:10.972Z,98257.84
2022-12-28T13:32:25.539Z,98260.25
2022-12-28T13:35:30.681Z,98248.16
2022-12-28T13:38:33.630Z,98243.06
2022-12-28T13:41:37.363Z,98242.81
2022-12-28T13:44:46.094Z,98230.19
2022-12-28T13:47:52.872Z,98235.84
2022-12-28T13:50:56.095Z,98225.13
2022-12-28T13:54:01.039Z,98230.75
2022-12-28T13:57:44.128Z,98226.47
2022-12-28T14:00:29.194Z,98226.75
2022-12-28T14:03:38.956Z,98226.97
2022-12-28T14:06:43.922Z,98229.94
2022-12-28T14:09:48.652Z,98227.53
2022-12-28T14:12:52.609Z,98228.88
2022-12-28T14:15:57.051Z,98229.13
2022-12-28T14:19:00.724Z,98231.81
2022-12-28T14:22:05.821Z,98226.97
2022-12-28T14:25:13.970Z,98218.94
2022-12-28T14:28:22.920Z,98219.50
2022-12-28T14:31:30.725Z,98210.69
2022-12-28T14:34:37.441Z,98207.44
2022-12-28T14:37:41.762Z,98200.50
2022-12-28T14:40:44.594Z,98202.34
2022-12-28T14:43:52.999Z,98197.81
2022-12-28T14:46:57.666Z,98192.16
2022-12-28T14:50:01.445Z,98198.88
2022-12-28T14:53:11.537Z,98182.00
2022-12-28T14:56:17.894Z,98176.91
2022-12-28T14:59:26.802Z,98179.59
2022-12-28T15:02:43.339Z,98182.28
2022-12-28T15:05:47.882Z,98184.16
2022-12-28T15:08:51.231Z,98178.78
2022-12-28T15:12:09.866Z,98187.34
2022-12-28T15:15:13.210Z,98184.94
2022-12-28T15:18:17.904Z,98181.97
2022-12-28T15:21:22.808Z,98177.19
2022-12-28T15:24:33.343Z,98177.69
2022-12-28T15:27:36.939Z,98168.06
2022-12-28T15:30:43.580Z,98175.56
2022-12-28T15:33:48.367Z,98167.81
2022-12-28T15:36:52.158Z,98163.78
2022-12-28T15:39:54.860Z,98162.44
2022-12-28T15:42:58.052Z,98162.69
2022-12-28T15:46:00.905Z,98154.16
2022-12-28T15:49:05.829Z,98150.94
2022-12-28T15:52:09.017Z,98150.66
2022-12-28T15:55:11.648Z,98156.00
2022-12-28T15:58:14.294Z,98154.41
2022-12-28T16:01:16.987Z,98160.25
2022-12-28T16:04:21.298Z,98155.19
2022-12-28T16:07:24.010Z,98152.78
2022-12-28T16:10:26.682Z,98153.31
2022-12-28T16:13:29.328Z,98149.00
2022-12-28T16:16:35.299Z,98145.53
2022-12-28T16:19:39.421Z,98139.06
2022-12-28T16:22:42.135Z,98133.97
2022-12-28T16:25:50.978Z,98127.78
2022-12-28T16:28:53.625Z,98125.59
2022-12-28T16:31:56.581Z,98123.97
2022-12-28T16:35:01.098Z,98115.69
2022-12-28T16:38:03.735Z,98121.34
2022-12-28T16:41:06.759Z,98112.00
2022-12-28T16:44:14.556Z,98107.97
2022-12-28T16:47:17.238Z,98102.44
2022-12-28T16:50:21.304Z,98098.44
2022-12-28T16:53:24.936Z,98094.44
2022-12-28T16:56:27.934Z,98093.34
2022-12-28T16:59:30.824Z,98100.31
2022-12-28T17:02:33.854Z,98099.00
2022-12-28T17:05:38.500Z,98091.50
2022-12-28T17:08:41.203Z,98097.13
2022-12-28T17:11:44.042Z,98093.94
2022-12-28T17:14:47.057Z,98094.97
2022-12-28T17:17:49.764Z,98085.06
2022-12-28T17:20:53.853Z,98092.31
2022-12-28T17:23:56.761Z,98089.09
2022-12-28T17:27:06.798Z,98086.69
2022-12-28T17:30:11.922Z,98086.97
2022-12-28T17:33:15.285Z,98081.63
2022-12-28T17:36:19.272Z,98082.69
2022-12-28T17:39:21.905Z,98075.19
2022-12-28T17:42:25.149Z,98071.44
2022-12-28T17:45:28.117Z,98072.25
2022-12-28T17:48:30.811Z,98071.94
2022-12-28T17:51:35.670Z,98066.06
2022-12-28T17:54:38.337Z,98070.91
2022-12-28T17:57:44.899Z,98066.88
2022-12-28T18:00:49.097Z,98060.97
2022-12-28T18:03:53.513Z,98054.03
2022-12-28T18:06:59.598Z,98036.91
2022-12-28T18:10:04.025Z,98036.66
2022-12-28T18:13:08.568Z,98034.53
2022-12-28T18:16:16.670Z,98027.56
2022-12-28T18:19:22.586Z,98026.47
2022-12-28T18:22:30.196Z,98015.47
2022-12-28T18:25:34.614Z,98018.41
2022-12-28T18:28:39.271Z,98010.38
2022-12-28T18:31:43.543Z,98008.47
2022-12-28T18:34:50.170Z,98000.19
2022-12-28T18:37:56.781Z,97996.19
2022-12-28T18:41:01.724Z,97993.50
2022-12-28T18:44:06.560Z,97993.53
2022-12-28T18:47:10.613Z,97992.22
2022-12-28T18:50:15.918Z,97980.75
2022-12-28T18:53:29.122Z,97986.38
2022-12-28T18:56:33.889Z,97987.19
2022-12-28T18:59:38.466Z,97983.44
2022-12-28T19:02:43.277Z,97977.53
2022-12-28T19:05:47.967Z,97979.69
2022-12-28T19:08:53.976Z,97975.41
2022-12-28T19:12:00.166Z,97971.41
2022-12-28T19:15:04.608Z,97960.41
2022-12-28T19:18:10.336Z,97959.88
2022-12-28T19:21:19.591Z,97953.47
2022-12-28T19:24:26.800Z,97949.19
2022-12-28T19:27:30.875Z,97950.56
2022-12-28T19:30:36.797Z,97945.72
2022-12-28T19:33:41.415Z,97940.88
2022-12-28T19:36:45.643Z,97933.44
2022-12-28T19:39:57.510Z,97926.22
2022-12-28T19:43:02.291Z,97921.66
2022-12-28T19:46:08.336Z,97931.56
2022-12-28T19:49:12.421Z,97924.03
2022-12-28T19:52:16.668Z,97925.38
2022-12-28T19:55:24.102Z,97924.31
2022-12-28T19:58:28.600Z,97925.66
2022-12-28T20:01:33.185Z,97924.84
2022-12-28T20:04:37.634Z,97928.06
2022-12-28T20:07:42.147Z,97929.66
2022-12-28T20:10:48.096Z,97928.59
2022-12-28T20:13:53.545Z,97923.28
2022-12-28T20:16:58.275Z,97923.25
2022-12-28T20:20:03.302Z,97918.44
2022-12-28T20:23:08.465Z,97920.31
2022-12-28T20:26:14.316Z,97914.41
2022-12-28T20:29:18.867Z,97908.25
2022-12-28T20:32:23.947Z,97906.41
2022-12-28T20:35:30.903Z,97903.19
2022-12-28T20:38:35.278Z,97908.28
2022-12-28T20:41:58.246Z,97910.69
2022-12-28T20:45:02.890Z,97901.59
2022-12-28T20:48:07.833Z,97900.81
2022-12-28T20:51:12.718Z,97898.41
2022-12-28T20:54:16.739Z,97898.69
2022-12-28T20:57:22.132Z,97903.47
2022-12-28T21:00:25.936Z,97887.97
2022-12-28T21:03:29.837Z,97888.25
2022-12-28T21:06:33.733Z,97889.59
2022-12-28T21:09:37.462Z,97880.78
2022-12-28T21:12:42.460Z,97877.56
2022-12-28T21:15:45.505Z,97876.72
2022-12-28T21:18:51.063Z,97867.13
2022-12-28T21:21:54.027Z,97863.63
2022-12-28T21:24:57.718Z,97858.00
2022-12-28T21:28:01.995Z,97859.34
2022-12-28T21:31:04.998Z,97859.31
2022-12-28T21:34:08.051Z,97853.16
2022-12-28T21:37:28.571Z,97848.63
2022-12-28T21:40:31.961Z,97845.13
2022-12-28T21:43:36.947Z,97844.06
2022-12-28T21:46:40.303Z,97842.72
2022-12-28T21:49:43.622Z,97840.31
2022-12-28T21:52:47.757Z,97851.31
2022-12-28T21:55:50.645Z,97840.31
2022-12-28T21:58:55.337Z,97834.41
2022-12-28T22:02:16.009Z,97824.25
2022-12-28T22:05:36.871Z,97834.94
2022-12-28T22:08:57.922Z,97833.84
2022-12-28T22:12:19.001Z,97829.03
2022-12-28T22:15:43.779Z,97824.75
2022-12-28T22:19:02.071Z,97824.22
2022-12-28T22:22:06.730Z,97818.81
2022-12-28T22:25:11.370Z,97819.31
2022-12-28T22:28:14.404Z,97820.09
2022-12-28T22:31:19.347Z,97807.16
2022-12-28T22:34:23.348Z,97809.00
2022-12-28T22:37:28.032Z,97805.19
2022-12-28T22:40:31.975Z,97808.13
2022-12-28T22:43:35.315Z,97806.75
2022-12-28T22:46:39.485Z,97798.13
2022-12-28T22:49:42.423Z,97793.00
2022-12-28T22:52:46.121Z,97793.00
2022-12-28T22:55:57.706Z,97808.31
2022-12-28T22:59:04.707Z,97804.22
2022-12-28T23:02:09.992Z,97793.53
2022-12-28T23:05:14.050Z,97801.03
2022-12-28T23:08:17.168Z,97797.25
2022-12-28T23:15:14.071Z,97802.56
2022-12-28T23:18:36.455Z,97795.63
2022-12-28T23:21:57.407Z,97802.28
2022-12-28T23:25:17.778Z,97789.75
2022-12-28T23:28:22.090Z,97797.50
2022-12-28T23:31:28.783Z,97787.63
2022-12-28T23:34:31.832Z,97787.84
2022-12-28T23:37:35.323Z,97775.78
2022-12-28T23:40:40.477Z,97784.06
2022-12-28T23:43:43.522Z,97774.44
2022-12-28T23:46:51.328Z,97766.88
2022-12-28T23:49:56.788Z,97773.31
2022-12-28T23:52:59.936Z,97760.47
2022-12-28T23:56:02.864Z,97759.13
2022-12-28T23:59:06.261Z,97764.03
